Terminal Aerodrome Forecast
Issued by NWS Cleveland, OH

Home | Current Version | Previous Version | Text Only | Print | Product List | Glossary Off
Versions: 1 2 3 4 5 6 7 8 9 10 11 12 13 14 15 16 17 18 19 20 21 22

000
FTUS41 KCLE 271741
TAFMFD
TAF
KMFD 271741Z 2718/2818 21012G20KT P6SM VCSH SCT008 OVC025
      TEMPO 2719/2721 3SM -SHRA BR OVC008
     FM272200 21012G20KT P6SM SCT006 OVC012
     FM280200 22010KT 3SM -SHRA BR OVC003
     FM280900 31012G20KT 4SM BR OVC003
     FM281700 31012G20KT P6SM OVC015=

USA.gov is the U.S. government's official web portal to all federal, state and local government web resources and services.